West Palm Beach, FL (33406)

12:01 PM EDT on October 31, 2014 (GMT -0400)
Lake Clarke Shores - Caribbean Rd. East | Change Station
CLOSE
Current Station
Personal Weather Station
Location: Lake Clarke Shores, FL
Elevation: 16 ft
Nearby Weather Stations

Elev 16 ft 26.63 °N, 80.07 °W | Updated 0 second ago

Scattered Clouds
Scattered Clouds
84.6 °F
Feels Like 88 °F
N
4.0
Wind Variable Wind from WNW
Gusts 8.1 mph

Today
High -- | Low -- °F
--% Chance of Precip.
Yesterday
High -- | Low -- °F
Precip. -- in
7:29 AM 6:38 PM
First Quarter, 56% visible
Pressure 29.84 in
Visibility 10.0 miles
Clouds Scattered Clouds 2800 ft
Scattered Clouds 25000 ft
Heat Index 88 °F
Dew Point 68 °F
Humidity 58%
Rainfall 0.04 in
Snow Depth Not available.
UV 6 out of 12
Pollen 3.70 out of 12
Air Quality Not available.
Flu Activity Not available.
METAR KPBI 311553Z 26012KT 10SM SCT028 SCT250 27/19 A2984 RMK AO2 SLP103 CB DSNT SW T02670194

More Conditions Fewer Conditions

Pressure 29.84 in
Visibility 10.0 miles
Clouds Scattered Clouds 2800 ft
Scattered Clouds 25000 ft
Heat Index 88 °F
Dew Point 68 °F
Humidity 58%
Rainfall 0.04 in
Snow Depth Not available.
UV 6 out of 12
Pollen 3.70 out of 12
Air Quality Not available.
Flu Activity Not available.
METAR KPBI 311553Z 26012KT 10SM SCT028 SCT250 27/19 A2984 RMK AO2 SLP103 CB DSNT SW T02670194

More Conditions Fewer Conditions

10-Day Weather Forecast

Almanac

Astronomy

Oct. 31, 2014 Rise Set
Actual Time
Civil Twilight
Nautical Twilight
Astronomical Twilight
Moon
Length of Visible Light
Length of Day
Tomorrow will be .
, % of the Moon is Illuminated

Today's Extremes

State Highs State Lows

Community

WunderPhotos

Upload Photos

1,766,649 photos uploaded!

WunderBlogs® & News

Nearby

Air Quality

  Air Quality AQ Index Pollutant
Not available.

Snow Depth

Station Depth Elevation

Earthquake Activity

City Distance Mag. Time & Date
Minimum magnitude displayed is 2.5.

Coastal Water Temperatures

Place Temperature

Nearby Weather Stations